Time;durP1;ratioP1;P1;durP2;ratioP2;P2;SDS_P1;SDS_P2;PMS_P1;PMS_P2;Temp;Humidity;BMP_temperature;BMP_pressure;BME280_temperature;BME280_humidity;BME280_pressure;Samples;Min_cycle;Max_cycle;Signal;HPM_P1;HPM_P2
2024/02/15 00:03:24;;;;;;;3.47;1.33;;;;;;;;;;10563435;27;20040;-75
2024/02/15 00:08:27;;;;;;;2.30;1.23;;;;;;;;;;10565173;27;20048;-75
2024/02/15 00:13:33;;;;;;;3.13;1.67;;;;;;;;;;10554592;27;20499;-75
2024/02/15 00:18:36;;;;;;;4.03;1.55;;;;;;;;;;10565145;27;20104;-75
2024/02/15 00:23:41;;;;;;;2.13;1.20;;;;;;;;;;10560237;27;20477;-75
2024/02/15 00:28:46;;;;;;;1.35;0.77;;;;;;;;;;10568522;27;20048;-74
2024/02/15 00:33:49;;;;;;;0.93;0.43;;;;;;;;;;10558289;27;20044;-76
2024/02/15 00:38:53;;;;;;;3.90;1.48;;;;;;;;;;10556962;27;20043;-75
2024/02/15 00:43:58;;;;;;;2.17;1.25;;;;;;;;;;10558272;27;20040;-75
2024/02/15 00:49:01;;;;;;;3.22;1.45;;;;;;;;;;10560724;27;20066;-75
2024/02/15 00:54:05;;;;;;;3.23;1.13;;;;;;;;;;10546364;27;20056;-74
2024/02/15 00:59:09;;;;;;;1.63;1.15;;;;;;;;;;10556840;28;20071;-75
2024/02/15 01:04:11;;;;;;;;;;;;;;;;;;10550858;28;20043;-74
2024/02/15 01:09:15;;;;;;;3.08;1.10;;;;;;;;;;10558541;28;19928;-75
2024/02/15 01:14:19;;;;;;;2.80;1.20;;;;;;;;;;10549312;28;20058;-76
2024/02/15 01:19:22;;;;;;;1.75;0.90;;;;;;;;;;10555262;28;20048;-75
2024/02/15 01:24:25;;;;;;;2.25;1.20;;;;;;;;;;10557401;28;20504;-75
2024/02/15 01:29:29;;;;;;;2.13;1.33;;;;;;;;;;10558947;28;20056;-75
2024/02/15 01:34:32;;;;;;;5.43;0.98;;;;;;;;;;10550197;28;20047;-75
2024/02/15 01:39:35;;;;;;;4.10;1.20;;;;;;;;;;10549347;28;20087;-75
2024/02/15 01:44:39;;;;;;;1.38;0.80;;;;;;;;;;10547835;27;20048;-75
2024/02/15 01:49:42;;;;;;;1.73;0.80;;;;;;;;;;10557325;27;20047;-74
2024/02/15 01:54:45;;;;;;;1.20;0.98;;;;;;;;;;10553731;27;20052;-76
2024/02/15 01:59:50;;;;;;;1.83;0.90;;;;;;;;;;10558982;27;20051;-75
2024/02/15 02:04:53;;;;;;;1.63;1.00;;;;;;;;;;10563692;27;20546;-75
2024/02/15 02:09:56;;;;;;;1.98;0.85;;;;;;;;;;10559070;28;20044;-75
2024/02/15 02:15:00;;;;;;;3.05;1.20;;;;;;;;;;10561759;27;20081;-76
2024/02/15 02:20:07;;;;;;;;;;;;;;;;;;10566526;27;20044;-76
2024/02/15 02:25:13;;;;;;;1.70;1.08;;;;;;;;;;10556202;27;20372;-75
2024/02/15 02:30:18;;;;;;;2.80;1.40;;;;;;;;;;10558229;27;20043;-75
2024/02/15 02:35:21;;;;;;;1.02;0.63;;;;;;;;;;10566477;27;20046;-75
2024/02/15 02:40:26;;;;;;;1.65;0.93;;;;;;;;;;10561017;27;20063;-75
2024/02/15 02:45:28;;;;;;;1.33;0.90;;;;;;;;;;10533226;28;20047;-75
2024/02/15 02:50:31;;;;;;;1.98;1.20;;;;;;;;;;10560951;27;20568;-75
2024/02/15 02:55:36;;;;;;;2.10;1.10;;;;;;;;;;10566762;27;20043;-75
2024/02/15 03:00:39;;;;;;;3.35;1.27;;;;;;;;;;10552259;27;20051;-75
2024/02/15 03:05:43;;;;;;;2.10;1.10;;;;;;;;;;10557803;27;20047;-76
2024/02/15 03:10:47;;;;;;;2.58;0.80;;;;;;;;;;10551810;27;20047;-76
2024/02/15 03:15:50;;;;;;;2.83;1.13;;;;;;;;;;10553162;28;20397;-75
2024/02/15 03:20:53;;;;;;;1.85;1.02;;;;;;;;;;10552725;27;20035;-75
2024/02/15 03:25:57;;;;;;;2.33;1.08;;;;;;;;;;10555799;27;20443;-75
2024/02/15 03:31:01;;;;;;;3.65;1.10;;;;;;;;;;10541445;28;20451;-75
2024/02/15 03:36:04;;;;;;;1.95;1.20;;;;;;;;;;10553938;27;20040;-75
2024/02/15 03:41:09;;;;;;;2.75;1.30;;;;;;;;;;10558744;27;20085;-75
2024/02/15 03:46:12;;;;;;;;;;;;;;;;;;10549723;28;20104;-75
2024/02/15 03:51:16;;;;;;;2.70;1.27;;;;;;;;;;10546653;27;20289;-75
2024/02/15 03:56:21;;;;;;;3.70;1.20;;;;;;;;;;10557132;27;20241;-75
2024/02/15 04:01:24;;;;;;;2.40;1.13;;;;;;;;;;10554832;27;20066;-75
2024/02/15 04:06:30;;;;;;;4.03;1.27;;;;;;;;;;10563565;27;20043;-75
2024/02/15 04:11:35;;;;;;;3.13;1.30;;;;;;;;;;10557748;27;20035;-74
2024/02/15 04:16:37;;;;;;;2.35;0.95;;;;;;;;;;10560826;27;20054;-74
2024/02/15 04:21:43;;;;;;;2.80;1.27;;;;;;;;;;10555528;27;20034;-76
2024/02/15 04:26:48;;;;;;;2.97;1.70;;;;;;;;;;10564020;27;20042;-74
2024/02/15 04:31:51;;;;;;;3.42;1.30;;;;;;;;;;10552458;27;20047;-75
2024/02/15 04:36:55;;;;;;;1.83;1.00;;;;;;;;;;10547936;27;20469;-75
2024/02/15 04:42:00;;;;;;;1.15;0.60;;;;;;;;;;10557353;27;20072;-76
2024/02/15 04:47:03;;;;;;;8.57;1.38;;;;;;;;;;10555937;27;20046;-74
2024/02/15 04:52:07;;;;;;;1.67;0.90;;;;;;;;;;10552132;27;20036;-74
2024/02/15 04:57:11;;;;;;;3.38;0.82;;;;;;;;;;10560598;27;20130;-74
2024/02/15 05:02:14;;;;;;;2.90;1.00;;;;;;;;;;10562531;27;20043;-74
2024/02/15 05:07:18;;;;;;;2.30;0.70;;;;;;;;;;10554750;28;20055;-73
2024/02/15 05:12:25;;;;;;;1.88;1.08;;;;;;;;;;10551417;28;20052;-74
2024/02/15 05:17:29;;;;;;;3.08;1.17;;;;;;;;;;10555845;28;20135;-75
2024/02/15 05:22:32;;;;;;;1.90;1.00;;;;;;;;;;10546815;28;20043;-75
2024/02/15 05:27:37;;;;;;;1.40;0.90;;;;;;;;;;10559400;28;20451;-75
2024/02/15 05:32:43;;;;;;;;;;;;;;;;;;10549166;28;20477;-75
2024/02/15 05:37:46;;;;;;;2.03;0.98;;;;;;;;;;10552276;28;19924;-75
2024/02/15 05:42:55;;;;;;;1.75;1.20;;;;;;;;;;10548857;28;20374;-75
2024/02/15 05:47:58;;;;;;;2.15;1.08;;;;;;;;;;10557389;28;20466;-75
2024/02/15 05:53:01;;;;;;;2.05;1.00;;;;;;;;;;10555638;28;20043;-75
2024/02/15 05:58:05;;;;;;;2.97;1.20;;;;;;;;;;10549917;28;20115;-75
2024/02/15 06:03:09;;;;;;;2.13;1.20;;;;;;;;;;10557473;28;20228;-75
2024/02/15 06:08:12;;;;;;;3.13;1.00;;;;;;;;;;10548161;28;20040;-73
2024/02/15 06:13:17;;;;;;;1.90;1.10;;;;;;;;;;10559230;28;20396;-75
2024/02/15 06:18:21;;;;;;;0.55;0.40;;;;;;;;;;10558583;28;20334;-74
2024/02/15 06:23:25;;;;;;;2.78;1.25;;;;;;;;;;10546074;28;20444;-75
2024/02/15 06:44:32;;;;;;;2.90;1.17;;;;;;;;;;10569182;27;20046;-75
2024/02/15 06:49:35;;;;;;;;;;;;;;;;;;10566117;27;20058;-76
2024/02/15 06:54:38;;;;;;;2.72;1.15;;;;;;;;;;10559846;27;19988;-74
2024/02/15 06:59:42;;;;;;;3.78;1.33;;;;;;;;;;10562430;27;20047;-73
2024/02/15 07:04:45;;;;;;;3.55;1.83;;;;;;;;;;10546620;27;20602;-77
2024/02/15 07:09:48;;;;;;;5.57;2.22;;;;;;;;;;10559480;27;20038;-76
2024/02/15 07:14:53;;;;;;;3.00;1.38;;;;;;;;;;10555168;27;20403;-76
2024/02/15 07:19:56;;;;;;;2.13;0.82;;;;;;;;;;10560485;27;20036;-75
2024/02/15 07:25:00;;;;;;;7.00;2.07;;;;;;;;;;10551814;28;20035;-75
2024/02/15 07:30:05;;;;;;;8.13;2.67;;;;;;;;;;10554182;27;20735;-75
2024/02/15 07:35:08;;;;;;;13.80;2.60;;;;;;;;;;10555431;27;20485;-74
2024/02/15 07:40:13;;;;;;;9.80;2.20;;;;;;;;;;10567509;27;20032;-76
2024/02/15 07:45:17;;;;;;;8.10;2.55;;;;;;;;;;10552445;27;20623;-75
2024/02/15 07:50:22;;;;;;;5.97;2.50;;;;;;;;;;10553260;27;20481;-75
2024/02/15 07:55:26;;;;;;;6.93;2.30;;;;;;;;;;10550864;27;20640;-74
2024/02/15 08:00:30;;;;;;;5.88;2.40;;;;;;;;;;10555194;27;20051;-75
2024/02/15 08:05:33;;;;;;;3.25;1.92;;;;;;;;;;10553781;28;20074;-75
2024/02/15 08:10:37;;;;;;;5.85;2.40;;;;;;;;;;10548683;28;20074;-75
2024/02/15 08:15:41;;;;;;;11.63;2.70;;;;;;;;;;10552939;27;20043;-76
2024/02/15 08:20:46;;;;;;;4.65;2.40;;;;;;;;;;10549858;28;20044;-76
2024/02/15 08:25:48;;;;;;;3.88;2.33;;;;;;;;;;10555127;27;20122;-76
2024/02/15 08:30:55;;;;;;;7.03;2.47;;;;;;;;;;10550682;27;20088;-75
2024/02/15 08:35:58;;;;;;;5.82;2.50;;;;;;;;;;10554296;27;20051;-76
2024/02/15 08:41:01;;;;;;;8.18;2.20;;;;;;;;;;10550983;27;20489;-74
2024/02/15 08:46:06;;;;;;;5.82;2.55;;;;;;;;;;10552066;27;20071;-74
2024/02/15 08:51:09;;;;;;;3.97;2.28;;;;;;;;;;10560521;27;20133;-75
2024/02/15 08:56:12;;;;;;;6.82;2.50;;;;;;;;;;10555828;27;20486;-75
2024/02/15 09:01:16;;;;;;;6.18;3.92;;;;;;;;;;10549438;28;20048;-76
2024/02/15 09:06:19;;;;;;;5.50;2.50;;;;;;;;;;10558093;27;20367;-76
2024/02/15 09:11:23;;;;;;;4.53;2.42;;;;;;;;;;10564142;27;20042;-76
2024/02/15 09:16:27;;;;;;;3.03;2.20;;;;;;;;;;10552349;28;20039;-76
2024/02/15 09:21:30;;;;;;;3.40;1.98;;;;;;;;;;10553592;28;20052;-75
2024/02/15 09:26:32;;;;;;;4.80;2.53;;;;;;;;;;10555621;28;20068;-77
2024/02/15 09:31:37;;;;;;;3.95;2.35;;;;;;;;;;10544261;28;20118;-76
2024/02/15 09:36:39;;;;;;;6.70;3.10;;;;;;;;;;10543916;28;20512;-77
2024/02/15 09:41:43;;;;;;;5.22;2.70;;;;;;;;;;10550007;28;20417;-75
2024/02/15 09:46:48;;;;;;;3.80;2.80;;;;;;;;;;10548142;28;20104;-76
2024/02/15 09:51:52;;;;;;;3.25;2.40;;;;;;;;;;10556162;28;20063;-76
2024/02/15 09:56:57;;;;;;;4.53;2.10;;;;;;;;;;10557379;28;20043;-76
2024/02/15 10:02:01;;;;;;;4.95;2.83;;;;;;;;;;10549597;28;20101;-78
2024/02/15 10:07:04;;;;;;;3.92;2.45;;;;;;;;;;10558103;27;20481;-76
2024/02/15 10:12:09;;;;;;;2.30;2.10;;;;;;;;;;10552683;27;20074;-75
2024/02/15 10:17:14;;;;;;;2.53;1.80;;;;;;;;;;10567859;27;20029;-77
2024/02/15 10:22:19;;;;;;;3.45;1.80;;;;;;;;;;10566027;27;20056;-77
2024/02/15 10:27:24;;;;;;;3.03;1.85;;;;;;;;;;10556809;27;20489;-76
2024/02/15 10:32:36;;;;;;;1.65;1.52;;;;;;;;;;10555999;27;20047;-76
2024/02/15 10:37:39;;;;;;;3.55;1.70;;;;;;;;;;10549457;28;20552;-76
2024/02/15 10:42:43;;;;;;;3.30;1.90;;;;;;;;;;10551926;28;20474;-75
2024/02/15 10:47:47;;;;;;;1.92;1.83;;;;;;;;;;10552413;28;20036;-76
2024/02/15 10:52:54;;;;;;;1.80;1.70;;;;;;;;;;10562100;27;20545;-77
2024/02/15 10:58:02;;;;;;;3.45;1.73;;;;;;;;;;10551111;27;20055;-77
2024/02/15 11:03:08;;;;;;;1.67;1.58;;;;;;;;;;10561839;27;20098;-77
2024/02/15 11:08:12;;;;;;;3.35;2.03;;;;;;;;;;10551838;27;20028;-77
2024/02/15 11:13:15;;;;;;;2.67;1.63;;;;;;;;;;10563163;27;20511;-76
2024/02/15 11:18:41;;;;;;;2.03;1.60;;;;;;;;;;10567814;27;20433;-76
2024/02/15 11:23:45;;;;;;;2.38;1.70;;;;;;;;;;10552449;27;20460;-76
2024/02/15 11:28:50;;;;;;;4.80;1.70;;;;;;;;;;10561548;27;20100;-76
2024/02/15 11:33:53;;;;;;;2.95;2.25;;;;;;;;;;10552274;27;20505;-76
2024/02/15 11:38:57;;;;;;;2.00;1.85;;;;;;;;;;10562014;27;20122;-76
2024/02/15 11:44:01;;;;;;;1.90;1.40;;;;;;;;;;10558670;27;20362;-76
2024/02/15 11:49:04;;;;;;;1.90;1.60;;;;;;;;;;10558212;27;20051;-76
2024/02/15 11:54:11;;;;;;;1.55;1.27;;;;;;;;;;10558592;27;20032;-76
2024/02/15 11:59:28;;;;;;;3.55;1.95;;;;;;;;;;10564416;27;20076;-78
2024/02/15 12:20:39;;;;;;;1.55;1.05;;;;;;;;;;10560034;27;20602;-76
2024/02/15 12:25:43;;;;;;;1.13;0.90;;;;;;;;;;10555604;27;20044;-76
2024/02/15 12:30:46;;;;;;;1.70;0.80;;;;;;;;;;10557477;27;20036;-77
2024/02/15 12:35:50;;;;;;;1.10;0.80;;;;;;;;;;10567312;27;20069;-75
2024/02/15 12:40:54;;;;;;;1.38;1.05;;;;;;;;;;10547830;28;20880;-77
2024/02/15 12:45:57;;;;;;;2.72;0.90;;;;;;;;;;10553162;27;20040;-77
2024/02/15 12:51:00;;;;;;;1.95;1.35;;;;;;;;;;10561559;27;20075;-75
2024/02/15 12:56:06;;;;;;;1.30;1.00;;;;;;;;;;10554644;27;20060;-76
2024/02/15 13:01:09;;;;;;;2.03;1.00;;;;;;;;;;10550472;28;20368;-76
2024/02/15 13:06:12;;;;;;;2.25;0.98;;;;;;;;;;10554628;27;20123;-77
2024/02/15 13:11:16;;;;;;;1.70;0.90;;;;;;;;;;10548436;28;20419;-77
2024/02/15 13:16:19;;;;;;;1.38;0.90;;;;;;;;;;10548729;28;20114;-75
2024/02/15 13:21:24;;;;;;;0.70;0.70;;;;;;;;;;10552016;27;20036;-75
2024/02/15 13:26:29;;;;;;;1.15;0.82;;;;;;;;;;10559101;28;20465;-76
2024/02/15 13:31:34;;;;;;;1.08;0.88;;;;;;;;;;10547387;28;20048;-76
2024/02/15 13:36:37;;;;;;;1.25;0.90;;;;;;;;;;10548011;28;20095;-75
2024/02/15 13:41:43;;;;;;;1.48;1.05;;;;;;;;;;10553289;27;20039;-76
2024/02/15 13:46:48;;;;;;;3.08;1.20;;;;;;;;;;10556435;27;20040;-75
2024/02/15 13:51:51;;;;;;;2.28;1.15;;;;;;;;;;10563616;27;20051;-77
2024/02/15 13:56:56;;;;;;;1.85;1.08;;;;;;;;;;10568591;27;20050;-75
2024/02/15 14:01:59;;;;;;;1.63;0.98;;;;;;;;;;10558951;27;20035;-76
2024/02/15 14:07:01;;;;;;;;;;;;;;;;;;10566569;27;20059;-75
2024/02/15 14:12:06;;;;;;;4.13;1.40;;;;;;;;;;10563436;27;19920;-75
2024/02/15 14:17:09;;;;;;;0.80;0.80;;;;;;;;;;10569083;27;20071;-75
2024/02/15 14:22:15;;;;;;;2.90;1.00;;;;;;;;;;10559906;27;20154;-75
2024/02/15 14:27:19;;;;;;;1.98;1.30;;;;;;;;;;10556115;27;20048;-75
2024/02/15 14:37:40;;;;;;;1.85;1.20;;;;;;;;;;10547154;27;20528;-75
2024/02/15 14:42:44;;;;;;;2.20;1.23;;;;;;;;;;10564459;27;20044;-75
2024/02/15 14:47:58;;;;;;;2.25;1.40;;;;;;;;;;10562459;27;20044;-74
2024/02/15 14:53:01;;;;;;;1.98;0.90;;;;;;;;;;10552529;27;20558;-76
2024/02/15 14:58:05;;;;;;;1.40;1.00;;;;;;;;;;10562657;27;20494;-75
2024/02/15 15:03:14;;;;;;;5.47;1.10;;;;;;;;;;10569141;27;20685;-75
2024/02/15 15:13:38;;;;;;;4.72;1.20;;;;;;;;;;10566646;27;20054;-75
2024/02/15 15:18:41;;;;;;;2.22;1.15;;;;;;;;;;10565596;27;20374;-76
2024/02/15 15:23:44;;;;;;;3.70;1.20;;;;;;;;;;10548464;28;20096;-75
2024/02/15 15:28:49;;;;;;;2.05;1.20;;;;;;;;;;10558257;27;20111;-75
2024/02/15 15:33:52;;;;;;;2.60;1.23;;;;;;;;;;10556352;28;20486;-76
2024/02/15 15:38:55;;;;;;;2.10;1.20;;;;;;;;;;10558237;28;20122;-74
2024/02/15 15:43:59;;;;;;;5.10;1.88;;;;;;;;;;10558845;28;20325;-74
2024/02/15 15:49:04;;;;;;;3.63;1.15;;;;;;;;;;10557769;28;20101;-75
2024/02/15 15:54:07;;;;;;;2.10;1.00;;;;;;;;;;10549128;28;20043;-76
2024/02/15 15:59:10;;;;;;;3.60;1.20;;;;;;;;;;10555930;27;20063;-76
2024/02/15 16:04:13;;;;;;;1.48;0.95;;;;;;;;;;10563299;27;20123;-76
2024/02/15 16:09:16;;;;;;;2.92;1.27;;;;;;;;;;10556511;27;20071;-76
2024/02/15 16:14:20;;;;;;;1.60;0.97;;;;;;;;;;10549342;27;20114;-74
2024/02/15 16:19:23;;;;;;;3.78;1.00;;;;;;;;;;10563771;27;20509;-76
2024/02/15 16:24:25;;;;;;;2.00;1.20;;;;;;;;;;10549605;27;20076;-76
2024/02/15 16:29:29;;;;;;;2.47;1.10;;;;;;;;;;10561137;27;20047;-74
2024/02/15 16:34:32;;;;;;;2.15;0.82;;;;;;;;;;10568287;27;20042;-75
2024/02/15 16:39:35;;;;;;;4.20;1.20;;;;;;;;;;10559193;27;20050;-76
2024/02/15 16:44:39;;;;;;;3.28;1.10;;;;;;;;;;10536867;27;20051;-74
2024/02/15 16:49:42;;;;;;;1.30;1.05;;;;;;;;;;10560894;27;20036;-75
2024/02/15 16:54:45;;;;;;;2.45;1.30;;;;;;;;;;10556264;28;20047;-74
2024/02/15 16:59:51;;;;;;;5.10;1.60;;;;;;;;;;10560842;27;20093;-76
2024/02/15 17:04:53;;;;;;;4.88;1.65;;;;;;;;;;10552071;27;20444;-74
2024/02/15 17:09:56;;;;;;;7.00;1.65;;;;;;;;;;10559914;27;20247;-76
2024/02/15 17:15:00;;;;;;;4.28;1.83;;;;;;;;;;10553365;27;20319;-76
2024/02/15 17:20:02;;;;;;;;;;;;;;;;;;10569069;28;20497;-75
2024/02/15 17:25:06;;;;;;;5.95;2.00;;;;;;;;;;10549159;28;19965;-74
2024/02/15 17:30:09;;;;;;;;;;;;;;;;;;10554054;28;20032;-74
2024/02/15 17:35:16;;;;;;;4.82;1.75;;;;;;;;;;10552616;28;19926;-74
2024/02/15 17:40:20;;;;;;;4.20;2.38;;;;;;;;;;10554119;28;20036;-75
2024/02/15 17:45:22;;;;;;;5.33;2.17;;;;;;;;;;10554884;28;20052;-74
2024/02/15 17:50:27;;;;;;;5.47;2.13;;;;;;;;;;10558439;28;20114;-74
2024/02/15 17:55:30;;;;;;;4.65;2.20;;;;;;;;;;10545713;28;20051;-74
2024/02/15 18:00:33;;;;;;;4.50;1.83;;;;;;;;;;10549326;28;20066;-75
2024/02/15 18:05:45;;;;;;;9.43;2.42;;;;;;;;;;10558060;28;20122;-76
2024/02/15 18:10:48;;;;;;;6.72;2.80;;;;;;;;;;10552523;28;20547;-76
2024/02/15 18:15:51;;;;;;;8.18;2.38;;;;;;;;;;10544563;28;20094;-74
2024/02/15 18:20:56;;;;;;;5.82;2.00;;;;;;;;;;10549700;28;20032;-74
2024/02/15 18:26:01;;;;;;;5.10;2.28;;;;;;;;;;10545729;28;20125;-75
2024/02/15 18:31:07;;;;;;;7.78;2.65;;;;;;;;;;10564614;27;20645;-73
2024/02/15 18:36:11;;;;;;;7.53;3.22;;;;;;;;;;10565909;27;20486;-76
2024/02/15 18:41:14;;;;;;;7.45;2.70;;;;;;;;;;10560007;27;20477;-76
2024/02/15 18:46:16;;;;;;;6.25;2.50;;;;;;;;;;10553608;27;20075;-75
2024/02/15 18:51:24;;;;;;;5.68;2.40;;;;;;;;;;10553986;27;20043;-75
2024/02/15 18:56:27;;;;;;;4.97;2.22;;;;;;;;;;10555817;27;20040;-74
2024/02/15 19:01:32;;;;;;;3.45;2.30;;;;;;;;;;10563307;27;20063;-75
2024/02/15 19:06:39;;;;;;;4.70;1.80;;;;;;;;;;10556454;27;20521;-75
2024/02/15 19:11:42;;;;;;;4.85;2.53;;;;;;;;;;10564683;27;20490;-75
2024/02/15 19:16:45;;;;;;;10.18;3.25;;;;;;;;;;10559128;27;20064;-75
2024/02/15 19:21:49;;;;;;;9.40;2.65;;;;;;;;;;10558806;27;20062;-74
2024/02/15 19:26:52;;;;;;;6.03;2.90;;;;;;;;;;10548230;27;20481;-76
2024/02/15 19:31:54;;;;;;;7.43;3.63;;;;;;;;;;10559188;27;20032;-76
2024/02/15 19:37:01;;;;;;;6.68;3.50;;;;;;;;;;10548021;27;20143;-75
2024/02/15 19:42:17;;;;;;;9.95;3.40;;;;;;;;;;10557497;28;20078;-74
2024/02/15 19:47:20;;;;;;;7.30;2.92;;;;;;;;;;10555873;27;20123;-76
2024/02/15 19:52:25;;;;;;;5.45;2.25;;;;;;;;;;10539803;27;20072;-76
2024/02/15 19:57:27;;;;;;;4.90;2.70;;;;;;;;;;10547296;27;20043;-75
2024/02/15 20:02:30;;;;;;;5.22;2.70;;;;;;;;;;10557800;28;20517;-75
2024/02/15 20:07:36;;;;;;;5.43;2.60;;;;;;;;;;10558974;27;20052;-75
2024/02/15 20:12:40;;;;;;;5.68;2.63;;;;;;;;;;10557101;27;20028;-75
2024/02/15 20:17:44;;;;;;;4.75;2.40;;;;;;;;;;10560423;27;20480;-74
2024/02/15 20:22:48;;;;;;;6.78;3.20;;;;;;;;;;10557942;28;20032;-75
2024/02/15 20:27:51;;;;;;;5.03;2.78;;;;;;;;;;10553679;27;20047;-75
2024/02/15 20:32:55;;;;;;;10.07;3.25;;;;;;;;;;10547822;28;20071;-77
2024/02/15 20:38:01;;;;;;;7.85;2.97;;;;;;;;;;10555232;27;20040;-75
2024/02/15 20:43:03;;;;;;;7.95;3.42;;;;;;;;;;10545602;28;20070;-75
2024/02/15 20:48:06;;;;;;;8.20;3.35;;;;;;;;;;10554219;28;20141;-75
2024/02/15 20:53:11;;;;;;;7.10;2.97;;;;;;;;;;10556663;27;20031;-75
2024/02/15 20:58:13;;;;;;;6.15;3.05;;;;;;;;;;10565436;27;20044;-75
2024/02/15 21:03:16;;;;;;;9.82;3.83;;;;;;;;;;10558218;27;20075;-75
2024/02/15 21:08:21;;;;;;;6.87;3.00;;;;;;;;;;10555338;27;20433;-75
2024/02/15 21:13:24;;;;;;;;;;;;;;;;;;10566465;27;20077;-75
2024/02/15 21:18:26;;;;;;;7.75;3.95;;;;;;;;;;10555864;27;20042;-75
2024/02/15 21:23:31;;;;;;;8.27;3.90;;;;;;;;;;10560354;28;20059;-77
2024/02/15 21:28:34;;;;;;;9.05;3.80;;;;;;;;;;10523930;28;20082;-75
2024/02/15 21:33:36;;;;;;;8.13;3.60;;;;;;;;;;10555403;28;20532;-75
2024/02/15 21:38:44;;;;;;;14.27;4.55;;;;;;;;;;10552600;28;20040;-76
2024/02/15 21:43:47;;;;;;;8.77;3.38;;;;;;;;;;10553358;28;20176;-75
2024/02/15 21:48:52;;;;;;;13.15;4.40;;;;;;;;;;10551722;28;20074;-75
2024/02/15 21:53:57;;;;;;;11.43;4.07;;;;;;;;;;10558869;28;20152;-75
2024/02/15 21:59:00;;;;;;;;;;;;;;;;;;10537180;28;20879;-75
2024/02/15 22:04:03;;;;;;;9.50;3.63;;;;;;;;;;10550424;27;20022;-75
2024/02/15 22:09:07;;;;;;;9.27;3.97;;;;;;;;;;10564697;27;20097;-76
2024/02/15 22:14:10;;;;;;;8.43;3.85;;;;;;;;;;10563623;27;20153;-75
2024/02/15 22:19:13;;;;;;;7.63;3.92;;;;;;;;;;10552555;27;20036;-75
2024/02/15 22:24:17;;;;;;;8.10;3.70;;;;;;;;;;10559712;27;20100;-75
2024/02/15 22:29:19;;;;;;;8.68;3.92;;;;;;;;;;10553938;27;20031;-75
2024/02/15 22:34:22;;;;;;;9.10;3.80;;;;;;;;;;10560703;27;20457;-76
2024/02/15 22:39:27;;;;;;;8.38;3.70;;;;;;;;;;10560088;27;20461;-75
2024/02/15 22:44:33;;;;;;;9.85;4.40;;;;;;;;;;10561696;27;20485;-75
2024/02/15 22:49:36;;;;;;;9.70;4.03;;;;;;;;;;10565305;27;20094;-75
2024/02/15 22:54:46;;;;;;;11.35;3.63;;;;;;;;;;10556327;28;20067;-75
2024/02/15 22:59:51;;;;;;;7.10;3.40;;;;;;;;;;10553960;28;20055;-75
2024/02/15 23:04:54;;;;;;;4.63;2.72;;;;;;;;;;10557638;27;20044;-76
2024/02/15 23:09:59;;;;;;;8.35;3.67;;;;;;;;;;10555003;27;20436;-76
2024/02/15 23:15:03;;;;;;;9.23;4.03;;;;;;;;;;10555316;28;20048;-75
2024/02/15 23:20:09;;;;;;;9.63;3.78;;;;;;;;;;10566364;27;20469;-74
2024/02/15 23:25:14;;;;;;;4.47;2.55;;;;;;;;;;10553649;27;20519;-74
2024/02/15 23:30:18;;;;;;;8.13;3.00;;;;;;;;;;10560278;27;20050;-75
2024/02/15 23:35:21;;;;;;;7.45;4.00;;;;;;;;;;10548481;28;20056;-74
2024/02/15 23:40:26;;;;;;;5.00;2.83;;;;;;;;;;10562654;27;20032;-75
2024/02/15 23:45:32;;;;;;;6.35;2.65;;;;;;;;;;10551353;27;20075;-74
2024/02/15 23:50:35;;;;;;;10.00;3.95;;;;;;;;;;10564903;27;20046;-74
2024/02/15 23:55:39;;;;;;;8.13;3.90;;;;;;;;;;10558521;27;20062;-74
